Time;durP1;ratioP1;P1;durP2;ratioP2;P2;SDS_P1;SDS_P2;PMS_P1;PMS_P2;Temp;Humidity;BMP_temperature;BMP_pressure;BME280_temperature;BME280_humidity;BME280_pressure;Samples;Min_cycle;Max_cycle;Signal;HPM_P1;HPM_P2
2023/03/23 00:02:26;;;;;;;17.85;13.23;;;11.10;73.00;;;;;;4994092;28;20057;-61
2023/03/23 00:04:53;;;;;;;21.35;16.77;;;11.00;72.30;;;;;;4994247;28;20032;-62
2023/03/23 00:07:21;;;;;;;17.90;13.85;;;11.10;71.90;;;;;;4994124;28;20019;-63
2023/03/23 00:09:53;;;;;;;18.23;14.52;;;11.00;73.20;;;;;;4994435;28;20030;-62
2023/03/23 00:12:32;;;;;;;17.30;13.55;;;11.00;72.30;;;;;;4994181;28;20411;-66
2023/03/23 00:15:05;;;;;;;18.33;14.27;;;11.00;71.90;;;;;;4994007;28;20109;-65
2023/03/23 00:17:34;;;;;;;17.45;14.30;;;11.00;71.50;;;;;;4994028;28;20018;-60
2023/03/23 00:20:00;;;;;;;21.70;16.55;;;11.00;71.50;;;;;;4993938;28;20448;-64
2023/03/23 00:22:28;;;;;;;18.42;14.55;;;10.90;70.90;;;;;;4994021;28;20098;-62
2023/03/23 00:24:54;;;;;;;17.27;14.23;;;10.90;71.30;;;;;;4994189;28;20022;-62
2023/03/23 00:27:24;;;;;;;16.42;12.85;;;10.80;71.20;;;;;;4993448;28;20026;-61
2023/03/23 00:29:53;;;;;;;19.52;15.38;;;10.80;71.70;;;;;;4993961;28;20022;-62
2023/03/23 00:32:29;;;;;;;15.88;12.60;;;10.80;71.50;;;;;;4993876;28;20029;-65
2023/03/23 00:34:58;;;;;;;16.90;13.63;;;10.70;71.90;;;;;;4994064;28;20035;-61
2023/03/23 00:37:25;;;;;;;15.77;12.55;;;10.60;72.00;;;;;;4993923;28;20027;-63
2023/03/23 00:39:51;;;;;;;17.58;12.80;;;10.60;72.10;;;;;;4993778;28;20057;-62
2023/03/23 00:42:18;;;;;;;13.73;11.60;;;10.60;72.00;;;;;;4993636;28;20066;-61
2023/03/23 00:44:43;;;;;;;15.45;12.07;;;10.60;72.00;;;;;;4993759;28;20027;-65
2023/03/23 00:47:11;;;;;;;13.32;10.85;;;10.60;72.40;;;;;;4993846;28;20018;-64
2023/03/23 00:49:37;;;;;;;14.90;11.63;;;10.60;73.80;;;;;;4993960;28;20027;-64
2023/03/23 00:52:04;;;;;;;18.65;14.15;;;10.50;73.70;;;;;;4993880;28;20023;-63
2023/03/23 00:54:30;;;;;;;23.42;18.58;;;10.50;74.90;;;;;;4993622;28;20026;-63
2023/03/23 00:56:56;;;;;;;21.85;17.80;;;10.40;76.10;;;;;;4993434;28;20026;-65
2023/03/23 00:59:22;;;;;;;19.33;15.00;;;10.30;77.20;;;;;;4993838;28;20036;-61
2023/03/23 01:01:48;;;;;;;16.88;13.77;;;10.20;77.50;;;;;;4993489;28;20496;-62
2023/03/23 01:04:15;;;;;;;18.60;14.30;;;10.20;78.60;;;;;;4993551;28;20113;-67
2023/03/23 01:06:43;;;;;;;21.88;17.10;;;10.20;79.60;;;;;;4993810;28;20033;-62
2023/03/23 01:09:14;;;;;;;21.63;16.25;;;10.20;79.00;;;;;;4993611;28;20033;-63
2023/03/23 01:11:42;;;;;;;23.92;16.77;;;10.10;79.40;;;;;;4993589;28;20485;-62
2023/03/23 01:14:07;;;;;;;21.58;17.20;;;10.10;80.00;;;;;;4993813;28;20032;-60
2023/03/23 01:16:33;;;;;;;20.15;15.57;;;10.00;81.00;;;;;;4993388;28;20109;-64
2023/03/23 01:18:59;;;;;;;20.38;15.82;;;10.00;81.30;;;;;;4993444;28;20081;-64
2023/03/23 01:21:24;;;;;;;21.88;15.88;;;10.00;82.50;;;;;;4993488;28;20473;-63
2023/03/23 01:23:50;;;;;;;18.20;13.80;;;9.80;84.10;;;;;;4993503;28;20026;-63
2023/03/23 01:26:22;;;;;;;14.52;12.00;;;9.80;85.00;;;;;;4993123;28;20030;-63
2023/03/23 01:28:49;;;;;;;14.60;11.73;;;9.80;86.10;;;;;;4994643;28;20026;-64
2023/03/23 01:31:20;;;;;;;14.57;10.77;;;9.80;85.90;;;;;;4996934;28;20049;-60
2023/03/23 01:33:47;;;;;;;13.85;10.45;;;9.90;85.20;;;;;;4996893;28;20018;-63
2023/03/23 01:36:15;;;;;;;13.15;9.80;;;9.90;85.60;;;;;;4996813;28;20034;-63
2023/03/23 01:38:43;;;;;;;12.05;8.95;;;9.90;86.30;;;;;;4996673;28;20415;-64
2023/03/23 01:41:08;;;;;;;12.98;9.65;;;9.90;84.30;;;;;;4996703;28;20023;-64
2023/03/23 01:43:34;;;;;;;11.60;8.77;;;9.90;84.20;;;;;;4996802;28;20022;-62
2023/03/23 01:46:00;;;;;;;13.93;11.05;;;9.90;82.30;;;;;;4996850;28;20044;-64
2023/03/23 01:48:35;;;;;;;13.60;10.13;;;9.90;82.20;;;;;;4996629;28;20019;-62
2023/03/23 01:51:09;;;;;;;11.48;8.45;;;9.80;82.60;;;;;;4996768;28;20023;-62
2023/03/23 01:53:40;;;;;;;12.32;9.30;;;9.60;83.30;;;;;;4996312;28;20464;-66
2023/03/23 01:56:08;;;;;;;15.20;11.32;;;9.70;82.90;;;;;;4996721;28;20042;-61
2023/03/23 01:58:36;;;;;;;12.15;9.73;;;9.60;83.50;;;;;;4996700;28;20026;-62
2023/03/23 02:01:07;;;;;;;11.65;8.73;;;9.50;84.30;;;;;;4996163;28;20035;-61
2023/03/23 02:03:36;;;;;;;13.35;9.68;;;9.50;84.80;;;;;;4996401;28;20022;-64
2023/03/23 02:06:03;;;;;;;11.40;9.98;;;9.50;84.20;;;;;;4996413;28;20030;-66
2023/03/23 02:08:32;;;;;;;9.38;7.95;;;9.60;83.30;;;;;;4996048;28;20544;-62
2023/03/23 02:10:58;;;;;;;9.57;8.30;;;9.60;83.80;;;;;;4996587;28;20034;-62
2023/03/23 02:13:25;;;;;;;8.48;7.53;;;9.60;83.50;;;;;;4996224;28;20152;-64
2023/03/23 02:16:21;;;;;;;9.43;7.72;;;9.50;83.20;;;;;;4996278;28;20045;-65
2023/03/23 02:18:57;;;;;;;12.27;9.88;;;9.60;83.40;;;;;;4996373;28;20030;-63
2023/03/23 02:21:36;;;;;;;12.48;9.13;;;9.50;83.90;;;;;;4996050;28;20023;-63
2023/03/23 02:24:14;;;;;;;11.38;8.63;;;9.30;84.80;;;;;;4995771;28;20026;-62
2023/03/23 02:27:06;;;;;;;9.63;8.25;;;9.40;84.60;;;;;;4995999;28;20035;-62
2023/03/23 02:29:51;;;;;;;11.77;8.30;;;9.40;84.40;;;;;;4995838;28;20080;-62
2023/03/23 02:32:48;;;;;;;10.95;7.57;;;9.40;84.60;;;;;;4996243;28;20377;-62
2023/03/23 02:35:34;;;;;;;7.75;6.78;;;9.40;84.30;;;;;;4995866;28;20026;-64
2023/03/23 02:38:09;;;;;;;9.30;7.30;;;9.30;85.20;;;;;;4995516;28;20072;-61
2023/03/23 02:40:40;;;;;;;9.30;7.95;;;9.30;85.60;;;;;;4994607;28;20023;-66
2023/03/23 02:43:13;;;;;;;10.73;7.90;;;9.30;84.50;;;;;;4995657;28;20057;-61
2023/03/23 02:45:41;;;;;;;8.87;7.97;;;9.20;85.10;;;;;;4996004;28;20384;-62
2023/03/23 02:48:08;;;;;;;9.55;7.40;;;9.10;85.90;;;;;;4995599;28;20153;-64
2023/03/23 02:50:37;;;;;;;9.93;8.30;;;9.10;85.90;;;;;;4995729;28;20019;-62
2023/03/23 02:53:07;;;;;;;8.50;7.22;;;9.10;86.50;;;;;;4995376;28;20025;-62
2023/03/23 02:55:34;;;;;;;9.57;7.65;;;9.00;86.40;;;;;;4995420;28;20053;-63
2023/03/23 02:58:01;;;;;;;13.65;10.40;;;9.10;85.70;;;;;;4995315;28;20149;-64
2023/03/23 03:00:27;;;;;;;9.77;8.38;;;9.00;87.60;;;;;;4995611;28;20073;-65
2023/03/23 03:02:55;;;;;;;11.30;8.27;;;8.90;89.10;;;;;;4995171;28;20038;-64
2023/03/23 03:05:40;;;;;;;11.82;8.35;;;8.90;89.50;;;;;;4995171;28;20392;-62
2023/03/23 03:08:30;;;;;;;9.50;7.10;;;8.90;90.30;;;;;;4995030;28;20018;-64
2023/03/23 03:11:07;;;;;;;9.30;7.30;;;9.00;90.80;;;;;;4995227;28;20041;-63
2023/03/23 03:13:40;;;;;;;10.27;8.40;;;9.00;90.40;;;;;;4994961;28;20029;-65
2023/03/23 03:16:06;;;;;;;9.68;7.75;;;9.00;90.50;;;;;;4994951;28;20042;-62
2023/03/23 03:19:01;;;;;;;9.90;7.93;;;8.80;91.10;;;;;;4995018;28;20022;-60
2023/03/23 03:21:32;;;;;;;11.90;8.98;;;8.90;90.70;;;;;;4973815;28;20041;-63
2023/03/23 03:24:01;;;;;;;10.80;8.18;;;8.80;91.30;;;;;;4994929;28;20027;-64
2023/03/23 03:26:34;;;;;;;10.20;7.35;;;8.70;92.00;;;;;;4995147;28;20030;-66
2023/03/23 03:29:01;;;;;;;9.38;7.00;;;8.70;92.20;;;;;;4995112;28;20037;-64
2023/03/23 03:31:31;;;;;;;10.52;8.38;;;8.80;91.60;;;;;;4994671;28;20015;-64
2023/03/23 03:34:01;;;;;;;10.30;7.50;;;8.70;91.60;;;;;;4994833;28;20046;-63
2023/03/23 03:36:34;;;;;;;8.88;7.15;;;8.60;92.40;;;;;;4994427;28;20038;-60
2023/03/23 03:39:07;;;;;;;11.38;8.15;;;8.60;92.20;;;;;;4994580;28;20033;-62
2023/03/23 03:41:34;;;;;;;11.43;7.30;;;8.70;92.20;;;;;;4994590;28;20483;-61
2023/03/23 03:44:00;;;;;;;11.70;9.00;;;8.70;92.00;;;;;;4994580;28;20019;-59
2023/03/23 03:46:29;;;;;;;13.05;9.23;;;8.70;91.80;;;;;;4994460;28;20030;-62
2023/03/23 03:48:56;;;;;;;10.65;8.15;;;8.60;92.60;;;;;;4994500;28;20109;-65
2023/03/23 03:51:22;;;;;;;10.52;7.60;;;8.60;93.20;;;;;;4993878;28;20500;-66
2023/03/23 03:53:48;;;;;;;8.93;7.57;;;8.70;93.10;;;;;;4994387;28;20080;-63
2023/03/23 03:56:15;;;;;;;8.40;6.57;;;8.70;92.20;;;;;;4994262;28;20034;-64
2023/03/23 03:58:42;;;;;;;8.52;6.20;;;8.60;92.00;;;;;;4994326;28;20022;-63
2023/03/23 04:01:12;;;;;;;6.85;5.65;;;8.60;91.70;;;;;;4994212;28;20472;-66
2023/03/23 04:03:38;;;;;;;8.00;6.50;;;8.60;91.50;;;;;;4994535;28;20030;-61
2023/03/23 04:06:04;;;;;;;6.43;5.00;;;8.60;91.50;;;;;;4994054;28;20022;-65
2023/03/23 04:08:31;;;;;;;6.45;5.40;;;8.60;91.60;;;;;;4994087;28;20030;-61
2023/03/23 04:10:57;;;;;;;8.48;6.15;;;8.50;91.50;;;;;;4994228;28;20076;-65
2023/03/23 04:13:23;;;;;;;6.45;5.35;;;8.60;91.50;;;;;;4994122;28;20431;-64
2023/03/23 04:15:49;;;;;;;6.70;5.65;;;8.50;91.70;;;;;;4994197;28;20041;-63
2023/03/23 04:18:17;;;;;;;7.20;5.47;;;8.40;91.80;;;;;;4994413;28;20030;-63
2023/03/23 04:20:47;;;;;;;6.72;5.43;;;8.50;91.80;;;;;;4993878;28;20496;-64
2023/03/23 04:23:14;;;;;;;5.93;5.10;;;8.50;92.10;;;;;;4993923;28;20029;-60
2023/03/23 04:25:41;;;;;;;6.95;5.40;;;8.50;91.70;;;;;;4993983;28;20019;-62
2023/03/23 04:28:09;;;;;;;9.15;6.50;;;8.50;92.00;;;;;;4994223;28;20113;-64
2023/03/23 04:30:36;;;;;;;9.38;7.13;;;8.50;92.10;;;;;;4993838;28;20023;-65
2023/03/23 04:33:02;;;;;;;12.73;8.30;;;8.40;92.70;;;;;;4993711;28;20380;-63
2023/03/23 04:35:29;;;;;;;10.23;8.32;;;8.30;93.30;;;;;;4993811;28;20030;-64
2023/03/23 04:37:55;;;;;;;11.57;8.90;;;8.30;94.40;;;;;;4993750;28;20026;-63
2023/03/23 04:40:22;;;;;;;8.65;7.30;;;8.20;95.40;;;;;;4993938;28;20022;-62
2023/03/23 04:42:50;;;;;;;10.82;8.68;;;8.10;95.70;;;;;;4993703;28;20096;-61
2023/03/23 04:45:21;;;;;;;11.27;8.27;;;8.20;96.20;;;;;;4993651;28;20040;-61
2023/03/23 04:47:58;;;;;;;9.25;7.22;;;8.20;96.40;;;;;;4993541;28;20019;-64
2023/03/23 04:50:30;;;;;;;8.55;6.57;;;8.10;96.70;;;;;;4993658;28;20106;-64
2023/03/23 04:52:58;;;;;;;11.20;8.75;;;8.10;96.50;;;;;;4994006;28;20057;-65
2023/03/23 04:55:25;;;;;;;8.07;6.63;;;8.20;96.70;;;;;;4993600;28;20038;-64
2023/03/23 04:57:51;;;;;;;9.48;7.47;;;8.20;97.20;;;;;;4993337;28;20062;-62
2023/03/23 05:00:20;;;;;;;10.90;8.13;;;8.20;96.80;;;;;;4993928;28;20429;-63
2023/03/23 05:02:51;;;;;;;10.05;7.35;;;8.30;96.40;;;;;;4993275;28;20049;-63
2023/03/23 05:05:17;;;;;;;8.18;6.82;;;8.30;96.50;;;;;;4997106;28;20030;-66
2023/03/23 05:07:43;;;;;;;8.93;6.82;;;8.30;96.30;;;;;;4997568;28;20022;-62
2023/03/23 05:10:11;;;;;;;7.93;6.05;;;8.30;95.50;;;;;;4997421;28;20495;-65
2023/03/23 05:12:37;;;;;;;10.32;7.65;;;8.40;95.40;;;;;;4997217;28;20033;-63
2023/03/23 05:15:04;;;;;;;7.72;5.85;;;8.40;94.60;;;;;;4997237;28;20023;-61
2023/03/23 05:17:32;;;;;;;6.95;5.50;;;8.40;95.00;;;;;;4997119;28;20385;-63
2023/03/23 05:19:58;;;;;;;6.93;5.82;;;8.40;94.50;;;;;;4997427;28;20030;-61
2023/03/23 05:22:27;;;;;;;6.75;5.88;;;8.40;94.10;;;;;;4997185;28;20559;-65
2023/03/23 05:24:53;;;;;;;7.75;6.20;;;8.40;93.90;;;;;;4997437;28;20034;-63
2023/03/23 05:27:19;;;;;;;8.70;7.03;;;8.50;93.60;;;;;;4997040;28;20026;-62
2023/03/23 05:29:48;;;;;;;9.55;7.38;;;8.40;93.60;;;;;;4997066;28;20383;-64
2023/03/23 05:32:14;;;;;;;11.15;8.63;;;8.40;93.40;;;;;;4996830;28;20031;-62
2023/03/23 05:34:42;;;;;;;16.48;11.32;;;8.50;93.20;;;;;;4996815;28;20109;-61
2023/03/23 05:37:09;;;;;;;18.83;15.07;;;8.60;93.30;;;;;;4996880;28;20102;-65
2023/03/23 05:39:35;;;;;;;22.35;18.35;;;8.40;94.40;;;;;;4996910;28;20053;-63
2023/03/23 05:42:02;;;;;;;35.33;30.75;;;8.30;95.50;;;;;;4996977;28;20033;-62
2023/03/23 05:44:29;;;;;;;48.63;38.22;;;8.20;97.60;;;;;;4996908;28;20056;-63
2023/03/23 05:46:54;;;;;;;46.67;40.90;;;8.00;99.00;;;;;;4996563;28;20472;-65
2023/03/23 05:49:20;;;;;;;62.40;47.60;;;7.90;99.90;;;;;;4996508;28;20068;-65
2023/03/23 05:51:46;;;;;;;68.70;50.67;;;7.90;99.90;;;;;;4996632;28;20022;-64
2023/03/23 05:54:13;;;;;;;58.30;44.85;;;7.70;99.90;;;;;;4996505;28;20026;-62
2023/03/23 05:56:38;;;;;;;47.80;38.38;;;7.70;99.90;;;;;;4996427;28;20027;-61
2023/03/23 05:59:04;;;;;;;84.70;64.90;;;7.90;99.90;;;;;;4995583;28;20029;-64
2023/03/23 06:01:31;;;;;;;72.13;58.15;;;8.00;99.90;;;;;;4995201;28;20054;-61
2023/03/23 06:03:58;;;;;;;72.75;61.83;;;7.90;99.90;;;;;;4994966;28;20029;-64
2023/03/23 06:06:29;;;;;;;64.32;54.88;;;7.90;99.90;;;;;;4995169;28;20396;-63
2023/03/23 06:08:56;;;;;;;65.10;52.45;;;8.00;99.90;;;;;;4995432;28;20117;-66
2023/03/23 06:11:24;;;;;;;91.50;71.18;;;8.00;99.90;;;;;;4995233;28;20058;-64
2023/03/23 06:13:50;;;;;;;69.35;55.30;;;8.10;99.90;;;;;;4996541;28;20027;-63
2023/03/23 06:16:16;;;;;;;58.75;51.58;;;8.00;99.90;;;;;;4995615;28;20041;-65
2023/03/23 06:18:42;;;;;;;60.17;51.60;;;9.40;99.90;;;;;;4996318;28;20105;-65
2023/03/23 06:21:09;;;;;;;61.03;52.97;;;12.60;92.20;;;;;;4996041;28;20132;-63
2023/03/23 06:23:35;;;;;;;54.90;47.85;;;15.40;76.10;;;;;;4996113;28;20023;-61
2023/03/23 06:26:05;;;;;;;56.20;48.85;;;17.20;65.80;;;;;;4995787;28;20077;-65
2023/03/23 06:28:31;;;;;;;54.92;48.25;;;18.30;60.20;;;;;;4996028;28;20132;-66
2023/03/23 06:31:00;;;;;;;45.67;41.03;;;19.20;56.20;;;;;;4995783;28;20452;-62
2023/03/23 06:33:26;;;;;;;47.83;42.60;;;20.10;53.00;;;;;;4995788;28;20030;-63
2023/03/23 06:35:51;;;;;;;46.15;39.05;;;20.70;50.60;;;;;;4995235;28;20034;-64
2023/03/23 06:38:18;;;;;;;34.28;30.67;;;21.30;49.30;;;;;;4995423;28;20031;-64
2023/03/23 06:40:46;;;;;;;30.33;27.10;;;21.80;48.30;;;;;;4994772;28;20521;-62
2023/03/23 06:43:13;;;;;;;39.95;33.88;;;22.50;46.30;;;;;;4995563;28;20023;-65
2023/03/23 06:45:40;;;;;;;41.80;34.22;;;23.10;46.00;;;;;;4995345;28;20129;-62
2023/03/23 06:48:06;;;;;;;37.65;31.55;;;23.70;44.00;;;;;;4993133;28;20023;-65
2023/03/23 06:50:32;;;;;;;32.88;27.05;;;24.40;44.50;;;;;;4993548;28;20392;-62
2023/03/23 06:52:58;;;;;;;42.45;33.20;;;24.90;42.00;;;;;;4993968;28;20018;-63
2023/03/23 06:55:23;;;;;;;49.67;36.22;;;25.10;41.90;;;;;;4994033;28;20030;-64
2023/03/23 06:57:49;;;;;;;40.50;31.42;;;24.90;42.10;;;;;;4994632;28;20535;-62
2023/03/23 07:00:15;;;;;;;31.10;26.50;;;25.20;41.80;;;;;;4994349;28;20101;-65
2023/03/23 07:02:41;;;;;;;26.58;23.42;;;26.40;40.60;;;;;;4994165;28;20060;-63
2023/03/23 07:05:09;;;;;;;24.25;19.98;;;27.70;38.30;;;;;;4994591;28;20022;-62
2023/03/23 07:07:38;;;;;;;26.70;21.13;;;28.20;38.00;;;;;;4990992;28;20057;-62
2023/03/23 07:10:08;;;;;;;21.85;19.45;;;28.70;37.30;;;;;;4982216;28;20389;-62
2023/03/23 07:12:36;;;;;;;17.33;15.10;;;29.60;36.20;;;;;;4986601;28;20093;-67
2023/03/23 07:15:04;;;;;;;15.65;14.05;;;30.00;34.90;;;;;;4985107;28;20038;-63
2023/03/23 07:17:30;;;;;;;12.93;11.52;;;30.20;34.50;;;;;;4982442;28;20026;-64
2023/03/23 07:19:56;;;;;;;9.80;8.80;;;30.20;33.70;;;;;;4983997;28;20436;-66
2023/03/23 07:22:22;;;;;;;8.88;8.02;;;30.40;34.40;;;;;;4983053;28;20389;-65
2023/03/23 07:24:47;;;;;;;7.65;6.95;;;30.40;32.30;;;;;;4983508;28;20030;-62
2023/03/23 07:27:13;;;;;;;7.15;6.47;;;30.80;34.30;;;;;;4974180;28;20039;-63
2023/03/23 07:29:39;;;;;;;6.85;6.18;;;31.70;32.80;;;;;;4974553;28;20023;-67
2023/03/23 07:32:06;;;;;;;5.85;5.35;;;32.00;31.90;;;;;;4976371;28;20054;-62
2023/03/23 07:34:32;;;;;;;6.15;5.55;;;32.80;32.40;;;;;;4991691;28;20030;-64
2023/03/23 07:36:58;;;;;;;6.28;5.22;;;33.10;30.70;;;;;;4991069;28;20050;-66
2023/03/23 07:39:25;;;;;;;6.10;5.50;;;33.50;31.80;;;;;;4983304;28;20029;-67
2023/03/23 07:41:51;;;;;;;7.90;6.45;;;34.20;30.20;;;;;;4986838;28;20034;-65
2023/03/23 07:44:17;;;;;;;7.22;6.53;;;34.40;30.00;;;;;;4981122;28;20504;-65
2023/03/23 07:46:43;;;;;;;8.57;7.72;;;34.60;29.50;;;;;;4983512;28;20049;-63
2023/03/23 07:49:10;;;;;;;9.80;8.80;;;34.30;29.60;;;;;;4976855;28;20487;-63
2023/03/23 07:51:38;;;;;;;11.93;10.70;;;34.70;30.60;;;;;;4982916;28;20404;-64
2023/03/23 07:54:04;;;;;;;10.65;9.65;;;35.00;29.70;;;;;;4970942;28;20074;-63
2023/03/23 07:56:31;;;;;;;9.32;8.52;;;35.00;29.00;;;;;;4969716;28;20027;-64
2023/03/23 07:58:56;;;;;;;8.32;7.53;;;35.30;29.40;;;;;;4969783;28;20070;-64
2023/03/23 08:01:23;;;;;;;8.30;7.55;;;35.80;28.80;;;;;;4968613;28;20059;-63
2023/03/23 08:03:51;;;;;;;8.55;7.70;;;36.30;28.40;;;;;;4974070;28;20030;-63
2023/03/23 08:06:41;;;;;;;8.18;7.38;;;36.30;28.80;;;;;;4987853;28;20034;-64
2023/03/23 08:09:08;;;;;;;7.45;6.85;;;36.20;28.00;;;;;;4988689;28;20556;-63
2023/03/23 08:11:38;;;;;;;7.53;6.93;;;36.40;28.50;;;;;;4990464;28;20411;-67
2023/03/23 08:14:05;;;;;;;9.07;8.10;;;36.80;28.00;;;;;;4991418;28;20105;-61
2023/03/23 08:16:31;;;;;;;8.65;7.80;;;36.70;28.40;;;;;;4991138;28;20037;-64
2023/03/23 08:18:57;;;;;;;10.77;9.13;;;36.80;28.30;;;;;;4991652;28;20022;-67
2023/03/23 08:21:23;;;;;;;8.50;7.70;;;36.30;29.00;;;;;;4991965;28;20365;-64
2023/03/23 08:23:52;;;;;;;7.72;6.95;;;35.70;29.40;;;;;;4990799;28;20024;-63
2023/03/23 08:29:41;;;;;;;8.48;7.25;;;35.70;28.70;;;;;;4992057;28;20030;-65
2023/03/23 08:32:07;;;;;;;6.68;6.07;;;35.30;27.70;;;;;;4990349;28;20374;-64
2023/03/23 08:34:32;;;;;;;5.78;5.28;;;35.20;28.00;;;;;;4990254;28;20029;-62
2023/03/23 08:40:28;;;;;;;5.30;4.80;;;35.20;28.00;;;;;;4997420;28;20029;-62
2023/03/23 08:42:58;;;;;;;5.57;4.72;;;35.20;28.40;;;;;;4994808;28;20026;-63
2023/03/23 08:45:28;;;;;;;4.80;4.40;;;34.90;28.20;;;;;;4994342;28;20520;-62
2023/03/23 08:47:54;;;;;;;4.93;4.43;;;35.00;27.60;;;;;;4983277;28;20067;-68
2023/03/23 08:50:24;;;;;;;6.18;4.78;;;35.00;27.80;;;;;;4980017;28;20037;-62
2023/03/23 08:52:50;;;;;;;4.78;4.38;;;34.60;27.80;;;;;;4975479;28;20030;-64
2023/03/23 08:55:17;;;;;;;6.57;5.93;;;34.30;28.20;;;;;;4973901;28;20393;-61
2023/03/23 08:57:44;;;;;;;5.95;5.55;;;33.80;29.30;;;;;;4972829;28;20073;-65
2023/03/23 09:00:19;;;;;;;7.05;6.45;;;33.50;29.10;;;;;;4975102;28;20026;-64
2023/03/23 09:02:49;;;;;;;7.68;6.97;;;33.00;30.00;;;;;;4975060;28;20472;-68
2023/03/23 09:05:16;;;;;;;6.65;6.07;;;32.60;29.30;;;;;;4975457;28;20027;-68
2023/03/23 09:07:46;;;;;;;7.43;6.70;;;32.50;29.50;;;;;;4976656;28;20061;-66
2023/03/23 09:10:13;;;;;;;6.82;6.30;;;31.80;29.70;;;;;;4972598;28;20023;-64
2023/03/23 09:12:39;;;;;;;6.28;5.78;;;31.50;29.90;;;;;;4974316;28;20604;-64
2023/03/23 09:15:08;;;;;;;6.07;5.57;;;31.30;30.00;;;;;;4977364;28;20033;-62
2023/03/23 09:17:42;;;;;;;6.15;5.65;;;31.20;30.10;;;;;;4993770;28;20022;-62
2023/03/23 09:20:13;;;;;;;5.55;5.05;;;30.90;29.70;;;;;;4993116;28;20384;-65
2023/03/23 09:22:43;;;;;;;5.20;4.80;;;30.50;30.00;;;;;;4994252;28;20029;-66
2023/03/23 09:25:11;;;;;;;4.15;3.85;;;30.00;29.80;;;;;;4993569;28;20022;-65
2023/03/23 09:27:39;;;;;;;4.10;3.80;;;29.50;31.30;;;;;;4994211;28;20092;-65
2023/03/23 09:30:10;;;;;;;3.28;2.97;;;29.10;30.20;;;;;;4994029;28;20453;-63
2023/03/23 09:32:37;;;;;;;1.92;1.83;;;29.00;30.80;;;;;;4994915;28;20018;-65
2023/03/23 09:35:08;;;;;;;2.17;1.98;;;28.80;30.10;;;;;;4985967;28;20042;-67
2023/03/23 09:37:35;;;;;;;2.10;2.00;;;29.20;29.80;;;;;;4994441;28;20081;-63
2023/03/23 09:40:05;;;;;;;1.60;1.50;;;29.10;28.60;;;;;;4989757;28;20018;-65
2023/03/23 09:42:34;;;;;;;1.27;1.20;;;28.90;29.30;;;;;;4983274;28;20026;-67
2023/03/23 09:45:11;;;;;;;1.02;0.93;;;28.80;29.00;;;;;;4985000;28;20015;-66
2023/03/23 09:48:15;;;;;;;4.90;1.80;;;28.70;30.00;;;;;;4986616;28;20038;-62
2023/03/23 09:50:48;;;;;;;1.48;1.33;;;28.70;29.00;;;;;;4907780;29;20047;-65
2023/03/23 09:53:26;;;;;;;1.20;0.98;;;28.50;31.50;;;;;;4972437;28;20532;-65
2023/03/23 09:55:52;;;;;;;0.80;0.80;;;28.40;31.00;;;;;;4987108;28;20057;-62
2023/03/23 09:58:23;;;;;;;0.98;0.82;;;28.00;30.30;;;;;;4980347;28;20065;-63
2023/03/23 10:01:02;;;;;;;1.33;0.80;;;28.50;29.90;;;;;;4984018;28;20042;-64
2023/03/23 10:03:37;;;;;;;0.63;0.60;;;29.20;29.20;;;;;;4987109;28;20042;-64
2023/03/23 10:06:04;;;;;;;0.57;0.57;;;29.60;28.90;;;;;;4981773;28;20105;-67
2023/03/23 10:08:32;;;;;;;1.15;0.88;;;29.40;29.20;;;;;;4990353;28;20026;-64
2023/03/23 10:11:32;;;;;;;1.42;0.70;;;29.50;29.40;;;;;;4988002;28;20077;-64
2023/03/23 10:14:28;;;;;;;0.75;0.73;;;29.50;29.30;;;;;;4987905;28;20022;-62
2023/03/23 10:17:13;;;;;;;1.00;0.90;;;29.40;31.10;;;;;;4983153;28;20432;-65
2023/03/23 10:20:14;;;;;;;1.50;1.25;;;29.40;29.70;;;;;;4983331;28;20022;-62
2023/03/23 10:22:56;;;;;;;1.58;0.90;;;29.10;29.80;;;;;;4983995;28;20026;-66
2023/03/23 10:25:41;;;;;;;0.82;0.82;;;29.00;32.80;;;;;;4983368;28;20031;-65
2023/03/23 10:28:13;;;;;;;1.10;1.00;;;29.20;30.00;;;;;;4984286;28;20109;-65
2023/03/23 10:30:55;;;;;;;1.08;0.90;;;29.50;29.80;;;;;;4983049;28;20081;-63
2023/03/23 10:33:25;;;;;;;1.10;1.00;;;30.10;29.10;;;;;;4985204;28;20049;-69
2023/03/23 10:36:01;;;;;;;2.35;1.35;;;30.20;28.70;;;;;;4991811;28;20026;-64
2023/03/23 10:38:41;;;;;;;1.85;1.05;;;30.00;28.70;;;;;;4987305;28;20092;-63
2023/03/23 10:41:12;;;;;;;1.27;1.00;;;30.10;28.30;;;;;;4992432;28;20050;-67
2023/03/23 10:43:39;;;;;;;0.88;0.88;;;30.20;28.60;;;;;;4990396;28;20042;-63
2023/03/23 10:46:11;;;;;;;1.10;1.00;;;30.60;28.30;;;;;;4987186;28;20108;-63
2023/03/23 10:48:38;;;;;;;0.90;0.90;;;30.80;28.60;;;;;;4992111;28;20034;-61
2023/03/23 10:51:10;;;;;;;1.00;0.90;;;30.70;28.80;;;;;;4989165;28;20495;-63
2023/03/23 10:53:50;;;;;;;1.80;1.70;;;30.90;29.70;;;;;;4987081;28;20023;-65
2023/03/23 10:56:27;;;;;;;1.48;1.15;;;30.60;28.10;;;;;;4976115;28;20044;-63
2023/03/23 10:58:55;;;;;;;1.83;1.40;;;30.30;29.70;;;;;;4966746;28;20019;-63
2023/03/23 11:01:31;;;;;;;1.73;1.10;;;29.90;28.90;;;;;;4968518;28;20063;-64
2023/03/23 11:04:00;;;;;;;1.65;1.55;;;29.80;28.70;;;;;;4970954;28;20026;-65
2023/03/23 11:06:33;;;;;;;1.55;1.45;;;29.60;29.00;;;;;;4976082;28;20032;-63
2023/03/23 11:09:08;;;;;;;1.42;1.33;;;29.90;29.50;;;;;;4994307;28;20536;-64
2023/03/23 11:11:42;;;;;;;1.63;1.52;;;29.80;30.20;;;;;;4993803;28;20026;-65
2023/03/23 11:14:19;;;;;;;1.45;1.35;;;30.30;28.60;;;;;;4977288;28;20042;-63
2023/03/23 11:16:55;;;;;;;1.25;1.10;;;30.60;29.60;;;;;;4984870;28;20037;-61
2023/03/23 11:19:30;;;;;;;1.58;1.05;;;30.60;31.00;;;;;;4984752;28;20030;-60
2023/03/23 11:22:27;;;;;;;1.33;1.20;;;30.60;30.00;;;;;;4993558;28;20031;-63
2023/03/23 11:25:00;;;;;;;1.25;1.15;;;30.10;29.60;;;;;;4974228;28;20161;-65
2023/03/23 11:27:28;;;;;;;2.92;1.20;;;30.20;28.90;;;;;;4979490;28;20040;-62
2023/03/23 11:29:59;;;;;;;1.45;1.35;;;30.50;29.30;;;;;;4993623;28;20045;-62
2023/03/23 11:32:28;;;;;;;1.20;1.10;;;30.90;29.10;;;;;;4992107;28;20022;-62
2023/03/23 11:34:59;;;;;;;2.55;1.30;;;31.10;33.80;;;;;;4991457;28;20269;-67
2023/03/23 11:37:40;;;;;;;1.98;1.50;;;31.10;30.80;;;;;;4991339;28;20089;-63
2023/03/23 11:40:08;;;;;;;2.00;1.65;;;31.00;28.90;;;;;;4983639;28;20026;-65
2023/03/23 11:42:57;;;;;;;1.65;1.55;;;31.20;29.30;;;;;;4980754;28;20041;-65
2023/03/23 11:45:36;;;;;;;1.20;1.10;;;31.40;28.50;;;;;;4990912;28;20033;-63
2023/03/23 11:48:15;;;;;;;1.48;1.38;;;31.20;28.20;;;;;;4986263;28;20034;-65
2023/03/23 11:51:09;;;;;;;1.30;1.20;;;31.10;29.10;;;;;;4980069;28;20394;-65
2023/03/23 11:53:49;;;;;;;1.30;1.20;;;31.10;29.60;;;;;;4978703;28;20026;-64
2023/03/23 11:56:28;;;;;;;1.92;1.23;;;31.10;30.40;;;;;;4983765;28;20037;-61
2023/03/23 11:58:56;;;;;;;1.20;1.10;;;30.90;28.60;;;;;;4980963;28;20469;-64
2023/03/23 12:01:34;;;;;;;1.35;1.25;;;30.80;30.30;;;;;;4982822;28;20378;-63
2023/03/23 12:04:27;;;;;;;1.10;1.00;;;30.80;32.40;;;;;;4984661;28;20034;-61
2023/03/23 12:07:13;;;;;;;1.27;1.17;;;30.80;31.80;;;;;;4991427;28;20113;-64
2023/03/23 12:09:46;;;;;;;1.30;1.20;;;31.30;29.40;;;;;;4993274;28;20101;-64
2023/03/23 12:12:34;;;;;;;1.80;1.10;;;31.50;29.10;;;;;;4980292;28;20038;-63
2023/03/23 12:15:11;;;;;;;1.02;1.02;;;31.80;29.20;;;;;;4973316;28;20498;-61
2023/03/23 12:18:05;;;;;;;1.15;1.10;;;32.00;28.60;;;;;;4985906;28;20084;-68
2023/03/23 12:20:40;;;;;;;2.30;1.30;;;32.20;29.40;;;;;;4986590;28;20763;-68
2023/03/23 12:23:46;;;;;;;3.08;1.63;;;32.10;28.80;;;;;;4981731;28;20112;-64
2023/03/23 12:26:24;;;;;;;1.70;1.60;;;31.10;29.00;;;;;;4986174;28;20061;-65
2023/03/23 12:29:08;;;;;;;1.52;1.40;;;31.30;28.50;;;;;;4983160;28;20073;-67
2023/03/23 12:31:49;;;;;;;1.88;1.45;;;31.10;28.80;;;;;;4973584;28;20503;-64
2023/03/23 12:34:28;;;;;;;1.58;1.30;;;31.10;28.80;;;;;;4980885;28;20510;-63
2023/03/23 12:37:28;;;;;;;1.10;1.10;;;31.00;28.90;;;;;;4985837;28;20049;-62
2023/03/23 12:40:17;;;;;;;1.50;1.40;;;31.50;28.20;;;;;;4976729;28;20057;-63
2023/03/23 12:43:15;;;;;;;1.30;1.20;;;31.50;29.00;;;;;;4980958;28;20089;-67
2023/03/23 12:46:03;;;;;;;1.88;1.38;;;32.00;28.10;;;;;;4976175;28;20498;-62
2023/03/23 12:48:50;;;;;;;1.25;1.20;;;31.60;27.80;;;;;;4986373;28;20031;-65
2023/03/23 12:51:32;;;;;;;1.33;1.20;;;31.60;28.00;;;;;;4977860;28;20113;-61
2023/03/23 12:54:10;;;;;;;2.15;0.90;;;31.70;31.00;;;;;;4980425;28;20042;-60
2023/03/23 12:56:53;;;;;;;0.93;0.93;;;31.50;29.20;;;;;;4980154;28;20041;-62
2023/03/23 12:59:22;;;;;;;0.90;0.90;;;31.50;28.10;;;;;;4987664;28;20122;-63
2023/03/23 13:01:55;;;;;;;0.90;0.90;;;31.80;29.50;;;;;;4987512;28;20054;-65
2023/03/23 13:04:29;;;;;;;1.65;0.90;;;31.60;28.30;;;;;;4984322;28;20042;-66
2023/03/23 13:07:03;;;;;;;0.80;0.80;;;31.70;28.80;;;;;;4988828;28;20030;-62
2023/03/23 13:10:06;;;;;;;1.00;0.85;;;31.90;28.40;;;;;;4990491;28;20053;-63
2023/03/23 13:12:34;;;;;;;1.02;0.90;;;32.30;28.00;;;;;;4989034;28;20113;-64